LTAF/ADA METAR and TAF weather

Enter ICAO airport designator
Station Type Date Time Source
LTAF METAR 2021/09/16 20:20 UTC NOAA

LTAF 162020Z 05006KT CAVOK 22/18 Q1010 NOSIG


Station Type Date Time Source
LTAF Decoded METAR 2021/09/16 20:20 UTC NOAA

Adana / Sakirpasa, Turkey (LTAF) 36-59N 035-18E 20M
Sep 16, 2021 - 04:20 PM EDT / 2021.09.16 2020 UTC
Wind: from the NE (050 degrees) at 7 MPH (6 KT):0
Visibility: greater than 7 mile(s):0
Temperature: 71 F (22 C)
Dew Point: 64 F (18 C)
Relative Humidity: 78%
Pressure (altimeter): 29.83 in. Hg (1010 hPa)
ob: LTAF 162020Z 05006KT CAVOK 22/18 Q1010 NOSIG
cycle: 20

Station Type Date Time Source
LTAF TAF 2021/09/16 18:01 UTC NOAA

TAF LTAF 161640Z 1618/1718 VRB02KT 9999 SCT035
BECMG 1618/1620 CAVOK
TEMPO 1702/1705 SCT035

Example: see airport list